Terminal Aerodrome Forecast
Issued by NWS Pueblo, CO

Home | Current Version | Previous Version | Text Only | Print | Product List | Glossary On
Versions: 1 2 3 4 5 6 7 8 9 10 11 12 13 14 15 16 17 18 19 20 21 22 23
000
FTUS45 KPUB 291120
TAFCOS
TAF
KCOS 291120Z 2912/3012 02006KT P6SM FEW120 SCT200
     FM291600 16008KT P6SM FEW100 SCT150
     FM292000 17013KT P6SM VCTS SCT050CB BKN100
     FM300300 33010KT P6SM VCSH FEW050 SCT150
     FM300500 36007KT P6SM FEW150 SCT200=

USA.gov is the U.S. government's official web portal to all federal, state and local government web resources and services.